sensor_id;sensor_type;location;lat;lon;timestamp;P1;durP1;ratioP1;P2;durP2;ratioP2
17967;SDS011;9109;48.050;11.696;2023-12-04T00:01:59;14.43;;;7.43;;
17967;SDS011;9109;48.050;11.696;2023-12-04T00:05:01;20.37;;;7.87;;
17967;SDS011;9109;48.050;11.696;2023-12-04T00:08:04;15.03;;;6.80;;
17967;SDS011;9109;48.050;11.696;2023-12-04T00:11:09;14.73;;;6.93;;
17967;SDS011;9109;48.050;11.696;2023-12-04T00:14:10;14.17;;;6.93;;
17967;SDS011;9109;48.050;11.696;2023-12-04T00:17:12;17.00;;;7.37;;
17967;SDS011;9109;48.050;11.696;2023-12-04T00:20:19;15.90;;;7.10;;
17967;SDS011;9109;48.050;11.696;2023-12-04T00:23:24;16.03;;;7.43;;
17967;SDS011;9109;48.050;11.696;2023-12-04T00:26:29;15.60;;;7.13;;
17967;SDS011;9109;48.050;11.696;2023-12-04T00:29:34;17.27;;;7.30;;
17967;SDS011;9109;48.050;11.696;2023-12-04T00:32:36;18.53;;;7.30;;
17967;SDS011;9109;48.050;11.696;2023-12-04T00:35:38;22.00;;;7.50;;
17967;SDS011;9109;48.050;11.696;2023-12-04T00:38:41;16.90;;;7.50;;
17967;SDS011;9109;48.050;11.696;2023-12-04T00:41:43;15.73;;;7.13;;
17967;SDS011;9109;48.050;11.696;2023-12-04T00:44:50;18.87;;;7.10;;
17967;SDS011;9109;48.050;11.696;2023-12-04T00:47:52;18.23;;;7.03;;
17967;SDS011;9109;48.050;11.696;2023-12-04T00:50:54;12.97;;;6.23;;
17967;SDS011;9109;48.050;11.696;2023-12-04T00:53:58;13.43;;;6.27;;
17967;SDS011;9109;48.050;11.696;2023-12-04T00:56:59;19.60;;;6.23;;
17967;SDS011;9109;48.050;11.696;2023-12-04T01:00:04;18.87;;;6.53;;
17967;SDS011;9109;48.050;11.696;2023-12-04T01:03:09;15.33;;;6.23;;
17967;SDS011;9109;48.050;11.696;2023-12-04T01:06:19;16.67;;;6.13;;
17967;SDS011;9109;48.050;11.696;2023-12-04T01:09:24;13.67;;;5.67;;
17967;SDS011;9109;48.050;11.696;2023-12-04T01:12:26;12.13;;;5.63;;
17967;SDS011;9109;48.050;11.696;2023-12-04T01:15:27;12.80;;;5.70;;
17967;SDS011;9109;48.050;11.696;2023-12-04T01:18:31;14.90;;;6.13;;
17967;SDS011;9109;48.050;11.696;2023-12-04T01:21:38;15.20;;;6.40;;
17967;SDS011;9109;48.050;11.696;2023-12-04T01:24:44;12.33;;;4.87;;
17967;SDS011;9109;48.050;11.696;2023-12-04T01:27:46;13.33;;;5.37;;
17967;SDS011;9109;48.050;11.696;2023-12-04T01:30:48;12.97;;;5.53;;
17967;SDS011;9109;48.050;11.696;2023-12-04T01:33:51;11.77;;;5.00;;
17967;SDS011;9109;48.050;11.696;2023-12-04T01:36:53;14.13;;;5.67;;
17967;SDS011;9109;48.050;11.696;2023-12-04T01:40:01;16.43;;;6.03;;
17967;SDS011;9109;48.050;11.696;2023-12-04T01:43:07;15.80;;;6.13;;
17967;SDS011;9109;48.050;11.696;2023-12-04T01:46:09;14.23;;;5.53;;
17967;SDS011;9109;48.050;11.696;2023-12-04T01:49:12;14.03;;;5.90;;
17967;SDS011;9109;48.050;11.696;2023-12-04T01:52:14;12.43;;;5.27;;
17967;SDS011;9109;48.050;11.696;2023-12-04T01:55:27;11.33;;;5.37;;
17967;SDS011;9109;48.050;11.696;2023-12-04T01:58:32;13.23;;;5.97;;
17967;SDS011;9109;48.050;11.696;2023-12-04T02:01:34;14.90;;;5.83;;
17967;SDS011;9109;48.050;11.696;2023-12-04T02:04:39;12.57;;;5.30;;
17967;SDS011;9109;48.050;11.696;2023-12-04T02:07:43;12.73;;;5.47;;
17967;SDS011;9109;48.050;11.696;2023-12-04T02:10:47;13.40;;;6.00;;
17967;SDS011;9109;48.050;11.696;2023-12-04T02:13:49;13.33;;;5.77;;
17967;SDS011;9109;48.050;11.696;2023-12-04T02:16:51;11.57;;;5.37;;
17967;SDS011;9109;48.050;11.696;2023-12-04T02:19:54;10.93;;;5.33;;
17967;SDS011;9109;48.050;11.696;2023-12-04T02:22:57;16.43;;;6.13;;
17967;SDS011;9109;48.050;11.696;2023-12-04T02:26:01;12.03;;;5.40;;
17967;SDS011;9109;48.050;11.696;2023-12-04T02:29:11;11.63;;;5.03;;
17967;SDS011;9109;48.050;11.696;2023-12-04T02:32:17;12.80;;;5.50;;
17967;SDS011;9109;48.050;11.696;2023-12-04T02:35:21;12.13;;;5.17;;
17967;SDS011;9109;48.050;11.696;2023-12-04T02:38:28;8.60;;;4.67;;
17967;SDS011;9109;48.050;11.696;2023-12-04T02:41:32;12.27;;;5.03;;
17967;SDS011;9109;48.050;11.696;2023-12-04T02:44:33;10.00;;;5.07;;
17967;SDS011;9109;48.050;11.696;2023-12-04T02:47:35;8.33;;;4.77;;
17967;SDS011;9109;48.050;11.696;2023-12-04T02:50:37;9.27;;;4.30;;
17967;SDS011;9109;48.050;11.696;2023-12-04T02:53:39;11.77;;;5.27;;
17967;SDS011;9109;48.050;11.696;2023-12-04T02:56:46;9.63;;;5.30;;
17967;SDS011;9109;48.050;11.696;2023-12-04T02:59:48;10.87;;;5.17;;
17967;SDS011;9109;48.050;11.696;2023-12-04T03:02:50;9.93;;;4.80;;
17967;SDS011;9109;48.050;11.696;2023-12-04T03:05:54;11.30;;;4.70;;
17967;SDS011;9109;48.050;11.696;2023-12-04T03:09:00;10.17;;;4.30;;
17967;SDS011;9109;48.050;11.696;2023-12-04T03:12:04;13.47;;;5.07;;
17967;SDS011;9109;48.050;11.696;2023-12-04T03:15:07;8.90;;;4.53;;
17967;SDS011;9109;48.050;11.696;2023-12-04T03:18:13;13.60;;;5.33;;
17967;SDS011;9109;48.050;11.696;2023-12-04T03:21:20;11.63;;;5.00;;
17967;SDS011;9109;48.050;11.696;2023-12-04T03:24:22;8.23;;;4.30;;
17967;SDS011;9109;48.050;11.696;2023-12-04T03:27:36;10.73;;;4.83;;
17967;SDS011;9109;48.050;11.696;2023-12-04T03:30:45;12.00;;;4.77;;
17967;SDS011;9109;48.050;11.696;2023-12-04T03:33:50;11.70;;;4.97;;
17967;SDS011;9109;48.050;11.696;2023-12-04T03:36:55;12.80;;;4.70;;
17967;SDS011;9109;48.050;11.696;2023-12-04T03:39:58;9.60;;;4.47;;
17967;SDS011;9109;48.050;11.696;2023-12-04T03:43:02;9.03;;;4.63;;
17967;SDS011;9109;48.050;11.696;2023-12-04T03:46:04;10.77;;;4.30;;
17967;SDS011;9109;48.050;11.696;2023-12-04T03:49:08;10.37;;;4.83;;
17967;SDS011;9109;48.050;11.696;2023-12-04T03:52:10;11.07;;;3.87;;
17967;SDS011;9109;48.050;11.696;2023-12-04T03:55:18;10.13;;;4.57;;
17967;SDS011;9109;48.050;11.696;2023-12-04T03:58:23;10.37;;;4.53;;
17967;SDS011;9109;48.050;11.696;2023-12-04T04:01:24;8.57;;;4.10;;
17967;SDS011;9109;48.050;11.696;2023-12-04T04:04:28;9.83;;;4.63;;
17967;SDS011;9109;48.050;11.696;2023-12-04T04:07:30;9.67;;;4.13;;
17967;SDS011;9109;48.050;11.696;2023-12-04T04:10:32;14.20;;;4.80;;
17967;SDS011;9109;48.050;11.696;2023-12-04T04:13:35;11.63;;;4.47;;
17967;SDS011;9109;48.050;11.696;2023-12-04T04:16:39;12.73;;;4.93;;
17967;SDS011;9109;48.050;11.696;2023-12-04T04:19:41;9.30;;;4.80;;
17967;SDS011;9109;48.050;11.696;2023-12-04T04:22:43;10.10;;;4.83;;
17967;SDS011;9109;48.050;11.696;2023-12-04T04:25:51;9.37;;;4.97;;
17967;SDS011;9109;48.050;11.696;2023-12-04T04:28:56;13.30;;;4.90;;
17967;SDS011;9109;48.050;11.696;2023-12-04T04:31:59;9.67;;;4.23;;
17967;SDS011;9109;48.050;11.696;2023-12-04T04:35:03;10.17;;;4.97;;
17967;SDS011;9109;48.050;11.696;2023-12-04T04:38:08;11.33;;;5.03;;
17967;SDS011;9109;48.050;11.696;2023-12-04T04:41:13;9.63;;;4.80;;
17967;SDS011;9109;48.050;11.696;2023-12-04T04:44:19;10.87;;;4.77;;
17967;SDS011;9109;48.050;11.696;2023-12-04T04:47:22;8.57;;;4.23;;
17967;SDS011;9109;48.050;11.696;2023-12-04T04:50:30;7.20;;;3.93;;
17967;SDS011;9109;48.050;11.696;2023-12-04T04:53:32;6.53;;;3.60;;
17967;SDS011;9109;48.050;11.696;2023-12-04T04:56:34;9.80;;;3.83;;
17967;SDS011;9109;48.050;11.696;2023-12-04T04:59:37;7.07;;;4.03;;
17967;SDS011;9109;48.050;11.696;2023-12-04T05:02:39;12.37;;;4.93;;
17967;SDS011;9109;48.050;11.696;2023-12-04T05:05:41;11.63;;;4.87;;
17967;SDS011;9109;48.050;11.696;2023-12-04T05:08:43;9.93;;;4.43;;
17967;SDS011;9109;48.050;11.696;2023-12-04T05:11:45;8.67;;;4.83;;
17967;SDS011;9109;48.050;11.696;2023-12-04T05:14:50;16.83;;;4.90;;
17967;SDS011;9109;48.050;11.696;2023-12-04T05:17:54;10.20;;;4.73;;
17967;SDS011;9109;48.050;11.696;2023-12-04T05:21:08;14.03;;;5.60;;
17967;SDS011;9109;48.050;11.696;2023-12-04T05:24:10;11.53;;;5.07;;
17967;SDS011;9109;48.050;11.696;2023-12-04T05:27:12;10.67;;;4.67;;
17967;SDS011;9109;48.050;11.696;2023-12-04T05:30:20;9.60;;;4.23;;
17967;SDS011;9109;48.050;11.696;2023-12-04T05:33:23;12.40;;;4.37;;
17967;SDS011;9109;48.050;11.696;2023-12-04T05:36:26;8.47;;;3.67;;
17967;SDS011;9109;48.050;11.696;2023-12-04T05:39:28;10.97;;;4.63;;
17967;SDS011;9109;48.050;11.696;2023-12-04T05:42:38;10.07;;;4.90;;
17967;SDS011;9109;48.050;11.696;2023-12-04T05:45:47;8.93;;;3.83;;
17967;SDS011;9109;48.050;11.696;2023-12-04T05:48:48;12.03;;;3.70;;
17967;SDS011;9109;48.050;11.696;2023-12-04T05:51:52;8.77;;;3.60;;
17967;SDS011;9109;48.050;11.696;2023-12-04T05:54:55;15.60;;;4.77;;
17967;SDS011;9109;48.050;11.696;2023-12-04T05:57:57;12.70;;;4.27;;
17967;SDS011;9109;48.050;11.696;2023-12-04T06:01:05;8.33;;;3.90;;
17967;SDS011;9109;48.050;11.696;2023-12-04T06:04:07;10.03;;;4.47;;
17967;SDS011;9109;48.050;11.696;2023-12-04T06:07:09;12.60;;;4.10;;
17967;SDS011;9109;48.050;11.696;2023-12-04T06:10:11;6.30;;;3.07;;
17967;SDS011;9109;48.050;11.696;2023-12-04T06:13:19;8.73;;;3.77;;
17967;SDS011;9109;48.050;11.696;2023-12-04T06:16:30;8.43;;;3.53;;
17967;SDS011;9109;48.050;11.696;2023-12-04T06:19:38;8.00;;;4.10;;
17967;SDS011;9109;48.050;11.696;2023-12-04T06:22:41;9.00;;;3.77;;
17967;SDS011;9109;48.050;11.696;2023-12-04T06:25:44;10.20;;;4.10;;
17967;SDS011;9109;48.050;11.696;2023-12-04T06:28:51;7.30;;;3.87;;
17967;SDS011;9109;48.050;11.696;2023-12-04T06:31:58;11.03;;;3.50;;
17967;SDS011;9109;48.050;11.696;2023-12-04T06:35:02;12.50;;;3.93;;
17967;SDS011;9109;48.050;11.696;2023-12-04T06:38:14;9.77;;;4.17;;
17967;SDS011;9109;48.050;11.696;2023-12-04T06:41:57;19.07;;;4.63;;
17967;SDS011;9109;48.050;11.696;2023-12-04T06:45:19;8.53;;;4.00;;
17967;SDS011;9109;48.050;11.696;2023-12-04T06:48:27;12.07;;;3.77;;
17967;SDS011;9109;48.050;11.696;2023-12-04T06:51:30;10.33;;;4.50;;
17967;SDS011;9109;48.050;11.696;2023-12-04T06:54:37;12.47;;;4.27;;
17967;SDS011;9109;48.050;11.696;2023-12-04T06:57:55;7.33;;;3.73;;
17967;SDS011;9109;48.050;11.696;2023-12-04T07:01:00;8.10;;;3.90;;
17967;SDS011;9109;48.050;11.696;2023-12-04T07:04:28;6.70;;;3.83;;
17967;SDS011;9109;48.050;11.696;2023-12-04T07:07:34;9.97;;;4.37;;
17967;SDS011;9109;48.050;11.696;2023-12-04T07:10:39;12.93;;;4.80;;
17967;SDS011;9109;48.050;11.696;2023-12-04T07:13:42;10.03;;;4.40;;
17967;SDS011;9109;48.050;11.696;2023-12-04T07:16:51;10.03;;;4.30;;
17967;SDS011;9109;48.050;11.696;2023-12-04T07:23:00;8.90;;;4.30;;
17967;SDS011;9109;48.050;11.696;2023-12-04T07:26:07;7.00;;;3.60;;
17967;SDS011;9109;48.050;11.696;2023-12-04T07:29:14;13.23;;;3.83;;
17967;SDS011;9109;48.050;11.696;2023-12-04T07:32:30;11.57;;;4.80;;
17967;SDS011;9109;48.050;11.696;2023-12-04T07:35:38;10.13;;;4.43;;
17967;SDS011;9109;48.050;11.696;2023-12-04T07:38:47;12.40;;;4.30;;
17967;SDS011;9109;48.050;11.696;2023-12-04T07:41:57;8.77;;;4.23;;
17967;SDS011;9109;48.050;11.696;2023-12-04T07:45:07;11.53;;;4.80;;
17967;SDS011;9109;48.050;11.696;2023-12-04T07:48:11;13.53;;;5.53;;
17967;SDS011;9109;48.050;11.696;2023-12-04T07:51:16;12.50;;;4.50;;
17967;SDS011;9109;48.050;11.696;2023-12-04T07:54:22;18.17;;;4.67;;
17967;SDS011;9109;48.050;11.696;2023-12-04T07:57:31;12.30;;;4.60;;
17967;SDS011;9109;48.050;11.696;2023-12-04T08:00:38;7.63;;;3.93;;
17967;SDS011;9109;48.050;11.696;2023-12-04T08:03:44;7.90;;;4.10;;
17967;SDS011;9109;48.050;11.696;2023-12-04T08:06:50;11.17;;;4.17;;
17967;SDS011;9109;48.050;11.696;2023-12-04T08:09:54;10.37;;;3.70;;
17967;SDS011;9109;48.050;11.696;2023-12-04T08:13:03;9.47;;;4.20;;
17967;SDS011;9109;48.050;11.696;2023-12-04T08:19:29;12.23;;;5.10;;
17967;SDS011;9109;48.050;11.696;2023-12-04T08:23:03;10.80;;;4.60;;
17967;SDS011;9109;48.050;11.696;2023-12-04T08:26:50;12.60;;;4.87;;
17967;SDS011;9109;48.050;11.696;2023-12-04T08:30:32;10.13;;;4.40;;
17967;SDS011;9109;48.050;11.696;2023-12-04T08:34:53;9.37;;;4.90;;
17967;SDS011;9109;48.050;11.696;2023-12-04T08:38:05;13.10;;;4.80;;
17967;SDS011;9109;48.050;11.696;2023-12-04T08:41:07;14.57;;;6.00;;
17967;SDS011;9109;48.050;11.696;2023-12-04T08:44:12;18.63;;;6.23;;
17967;SDS011;9109;48.050;11.696;2023-12-04T08:47:14;14.17;;;5.83;;
17967;SDS011;9109;48.050;11.696;2023-12-04T08:50:17;12.90;;;5.53;;
17967;SDS011;9109;48.050;11.696;2023-12-04T08:53:21;15.47;;;5.03;;
17967;SDS011;9109;48.050;11.696;2023-12-04T08:56:27;12.40;;;5.17;;
17967;SDS011;9109;48.050;11.696;2023-12-04T08:59:36;12.37;;;5.53;;
17967;SDS011;9109;48.050;11.696;2023-12-04T09:02:47;13.67;;;5.10;;
17967;SDS011;9109;48.050;11.696;2023-12-04T09:05:56;16.43;;;5.90;;
17967;SDS011;9109;48.050;11.696;2023-12-04T09:08:58;19.23;;;5.87;;
17967;SDS011;9109;48.050;11.696;2023-12-04T09:12:00;14.17;;;5.23;;
17967;SDS011;9109;48.050;11.696;2023-12-04T09:15:05;12.10;;;5.67;;
17967;SDS011;9109;48.050;11.696;2023-12-04T09:18:10;18.57;;;6.63;;
17967;SDS011;9109;48.050;11.696;2023-12-04T09:21:13;16.87;;;6.57;;
17967;SDS011;9109;48.050;11.696;2023-12-04T09:24:20;16.67;;;7.23;;
17967;SDS011;9109;48.050;11.696;2023-12-04T09:27:22;18.93;;;7.00;;
17967;SDS011;9109;48.050;11.696;2023-12-04T09:30:30;19.63;;;8.27;;
17967;SDS011;9109;48.050;11.696;2023-12-04T09:33:39;23.80;;;8.20;;
17967;SDS011;9109;48.050;11.696;2023-12-04T09:36:42;18.07;;;7.93;;
17967;SDS011;9109;48.050;11.696;2023-12-04T09:39:46;18.33;;;7.47;;
17967;SDS011;9109;48.050;11.696;2023-12-04T09:42:51;19.63;;;8.43;;
17967;SDS011;9109;48.050;11.696;2023-12-04T09:45:56;22.30;;;7.77;;
17967;SDS011;9109;48.050;11.696;2023-12-04T09:49:02;15.97;;;6.93;;
17967;SDS011;9109;48.050;11.696;2023-12-04T09:52:06;21.77;;;8.77;;
17967;SDS011;9109;48.050;11.696;2023-12-04T09:55:15;31.27;;;9.50;;
17967;SDS011;9109;48.050;11.696;2023-12-04T09:58:20;18.93;;;7.60;;
17967;SDS011;9109;48.050;11.696;2023-12-04T10:01:31;23.60;;;7.87;;
17967;SDS011;9109;48.050;11.696;2023-12-04T10:04:43;23.27;;;8.20;;
17967;SDS011;9109;48.050;11.696;2023-12-04T10:07:48;17.90;;;7.67;;
17967;SDS011;9109;48.050;11.696;2023-12-04T10:10:50;17.30;;;6.83;;
17967;SDS011;9109;48.050;11.696;2023-12-04T10:13:54;15.00;;;7.40;;
17967;SDS011;9109;48.050;11.696;2023-12-04T10:16:59;16.87;;;6.97;;
17967;SDS011;9109;48.050;11.696;2023-12-04T10:20:15;18.30;;;7.03;;
17967;SDS011;9109;48.050;11.696;2023-12-04T10:23:36;19.37;;;7.50;;
17967;SDS011;9109;48.050;11.696;2023-12-04T10:26:49;18.47;;;7.20;;
17967;SDS011;9109;48.050;11.696;2023-12-04T10:29:52;16.93;;;6.97;;
17967;SDS011;9109;48.050;11.696;2023-12-04T10:32:59;16.03;;;6.87;;
17967;SDS011;9109;48.050;11.696;2023-12-04T10:36:10;13.67;;;6.13;;
17967;SDS011;9109;48.050;11.696;2023-12-04T10:39:13;13.33;;;6.20;;
17967;SDS011;9109;48.050;11.696;2023-12-04T10:42:23;12.40;;;6.13;;
17967;SDS011;9109;48.050;11.696;2023-12-04T10:45:26;20.43;;;6.77;;
17967;SDS011;9109;48.050;11.696;2023-12-04T10:48:31;12.83;;;6.10;;
17967;SDS011;9109;48.050;11.696;2023-12-04T10:51:39;11.90;;;5.57;;
17967;SDS011;9109;48.050;11.696;2023-12-04T10:54:43;15.07;;;5.93;;
17967;SDS011;9109;48.050;11.696;2023-12-04T10:57:49;17.10;;;6.77;;
17967;SDS011;9109;48.050;11.696;2023-12-04T11:00:57;12.97;;;6.10;;
17967;SDS011;9109;48.050;11.696;2023-12-04T11:04:03;12.40;;;6.07;;
17967;SDS011;9109;48.050;11.696;2023-12-04T11:07:15;15.80;;;6.30;;
17967;SDS011;9109;48.050;11.696;2023-12-04T11:10:17;13.73;;;6.37;;
17967;SDS011;9109;48.050;11.696;2023-12-04T11:13:27;17.87;;;7.57;;
17967;SDS011;9109;48.050;11.696;2023-12-04T11:16:34;15.63;;;6.37;;
17967;SDS011;9109;48.050;11.696;2023-12-04T11:19:50;72.27;;;26.63;;
17967;SDS011;9109;48.050;11.696;2023-12-04T11:22:59;143.03;;;44.27;;
17967;SDS011;9109;48.050;11.696;2023-12-04T11:26:06;46.77;;;16.37;;
17967;SDS011;9109;48.050;11.696;2023-12-04T11:29:13;22.57;;;9.17;;
17967;SDS011;9109;48.050;11.696;2023-12-04T11:32:16;26.80;;;10.77;;
17967;SDS011;9109;48.050;11.696;2023-12-04T11:35:24;35.33;;;11.73;;
17967;SDS011;9109;48.050;11.696;2023-12-04T11:38:31;27.93;;;9.47;;
17967;SDS011;9109;48.050;11.696;2023-12-04T11:41:37;30.83;;;12.97;;
17967;SDS011;9109;48.050;11.696;2023-12-04T11:44:43;25.93;;;9.93;;
17967;SDS011;9109;48.050;11.696;2023-12-04T11:47:51;22.97;;;8.67;;
17967;SDS011;9109;48.050;11.696;2023-12-04T11:51:01;26.73;;;10.97;;
17967;SDS011;9109;48.050;11.696;2023-12-04T11:54:02;21.17;;;8.63;;
17967;SDS011;9109;48.050;11.696;2023-12-04T11:57:21;21.10;;;9.20;;
17967;SDS011;9109;48.050;11.696;2023-12-04T12:00:24;27.00;;;9.67;;
17967;SDS011;9109;48.050;11.696;2023-12-04T12:03:26;19.33;;;8.73;;
17967;SDS011;9109;48.050;11.696;2023-12-04T12:06:31;19.27;;;8.93;;
17967;SDS011;9109;48.050;11.696;2023-12-04T12:09:33;18.80;;;8.73;;
17967;SDS011;9109;48.050;11.696;2023-12-04T12:12:34;26.67;;;9.80;;
17967;SDS011;9109;48.050;11.696;2023-12-04T12:15:37;19.77;;;8.47;;
17967;SDS011;9109;48.050;11.696;2023-12-04T12:18:41;28.00;;;8.90;;
17967;SDS011;9109;48.050;11.696;2023-12-04T12:22:00;15.33;;;8.30;;
17967;SDS011;9109;48.050;11.696;2023-12-04T12:25:04;16.40;;;7.80;;
17967;SDS011;9109;48.050;11.696;2023-12-04T12:28:09;19.60;;;8.23;;
17967;SDS011;9109;48.050;11.696;2023-12-04T12:31:18;14.23;;;7.43;;
17967;SDS011;9109;48.050;11.696;2023-12-04T12:34:26;21.03;;;8.53;;
17967;SDS011;9109;48.050;11.696;2023-12-04T12:37:37;25.77;;;8.70;;
17967;SDS011;9109;48.050;11.696;2023-12-04T12:40:44;15.70;;;7.50;;
17967;SDS011;9109;48.050;11.696;2023-12-04T12:44:00;17.57;;;8.73;;
17967;SDS011;9109;48.050;11.696;2023-12-04T12:47:06;21.73;;;8.10;;
17967;SDS011;9109;48.050;11.696;2023-12-04T12:50:10;16.03;;;8.03;;
17967;SDS011;9109;48.050;11.696;2023-12-04T12:53:18;16.57;;;7.60;;
17967;SDS011;9109;48.050;11.696;2023-12-04T12:56:22;16.63;;;7.87;;
17967;SDS011;9109;48.050;11.696;2023-12-04T12:59:24;17.40;;;8.17;;
17967;SDS011;9109;48.050;11.696;2023-12-04T13:02:25;17.50;;;8.23;;
17967;SDS011;9109;48.050;11.696;2023-12-04T13:05:33;17.13;;;8.60;;
17967;SDS011;9109;48.050;11.696;2023-12-04T13:08:42;17.33;;;8.00;;
17967;SDS011;9109;48.050;11.696;2023-12-04T13:11:47;22.80;;;8.47;;
17967;SDS011;9109;48.050;11.696;2023-12-04T13:14:49;19.07;;;9.00;;
17967;SDS011;9109;48.050;11.696;2023-12-04T13:21:17;18.70;;;8.60;;
17967;SDS011;9109;48.050;11.696;2023-12-04T13:24:22;19.53;;;8.73;;
17967;SDS011;9109;48.050;11.696;2023-12-04T13:27:24;21.23;;;10.30;;
17967;SDS011;9109;48.050;11.696;2023-12-04T13:30:26;22.33;;;10.20;;
17967;SDS011;9109;48.050;11.696;2023-12-04T13:33:35;24.20;;;10.93;;
17967;SDS011;9109;48.050;11.696;2023-12-04T13:36:37;28.33;;;10.97;;
17967;SDS011;9109;48.050;11.696;2023-12-04T13:39:40;24.40;;;10.80;;
17967;SDS011;9109;48.050;11.696;2023-12-04T13:42:48;22.60;;;10.83;;
17967;SDS011;9109;48.050;11.696;2023-12-04T13:46:07;21.67;;;9.77;;
17967;SDS011;9109;48.050;11.696;2023-12-04T13:49:12;26.93;;;10.67;;
17967;SDS011;9109;48.050;11.696;2023-12-04T13:52:15;25.33;;;11.23;;
17967;SDS011;9109;48.050;11.696;2023-12-04T13:55:28;22.10;;;10.40;;
17967;SDS011;9109;48.050;11.696;2023-12-04T13:58:47;19.90;;;9.63;;
17967;SDS011;9109;48.050;11.696;2023-12-04T14:01:56;26.07;;;9.50;;
17967;SDS011;9109;48.050;11.696;2023-12-04T14:05:02;22.33;;;9.53;;
17967;SDS011;9109;48.050;11.696;2023-12-04T14:08:05;26.17;;;10.57;;
17967;SDS011;9109;48.050;11.696;2023-12-04T14:11:14;22.47;;;10.43;;
17967;SDS011;9109;48.050;11.696;2023-12-04T14:14:16;23.63;;;9.70;;
17967;SDS011;9109;48.050;11.696;2023-12-04T14:17:20;19.03;;;9.40;;
17967;SDS011;9109;48.050;11.696;2023-12-04T14:20:22;21.23;;;9.97;;
17967;SDS011;9109;48.050;11.696;2023-12-04T14:23:26;26.40;;;10.77;;
17967;SDS011;9109;48.050;11.696;2023-12-04T14:26:30;26.77;;;10.23;;
17967;SDS011;9109;48.050;11.696;2023-12-04T14:29:42;22.37;;;10.13;;
17967;SDS011;9109;48.050;11.696;2023-12-04T14:32:47;20.70;;;10.53;;
17967;SDS011;9109;48.050;11.696;2023-12-04T14:35:52;31.87;;;11.50;;
17967;SDS011;9109;48.050;11.696;2023-12-04T14:38:57;25.83;;;10.90;;
17967;SDS011;9109;48.050;11.696;2023-12-04T14:42:01;25.77;;;11.67;;
17967;SDS011;9109;48.050;11.696;2023-12-04T14:45:06;26.43;;;10.87;;
17967;SDS011;9109;48.050;11.696;2023-12-04T14:48:08;20.43;;;10.07;;
17967;SDS011;9109;48.050;11.696;2023-12-04T14:51:11;20.30;;;10.43;;
17967;SDS011;9109;48.050;11.696;2023-12-04T14:54:17;23.30;;;9.77;;
17967;SDS011;9109;48.050;11.696;2023-12-04T14:57:41;23.43;;;9.73;;
17967;SDS011;9109;48.050;11.696;2023-12-04T15:00:57;20.00;;;9.47;;
17967;SDS011;9109;48.050;11.696;2023-12-04T15:04:15;21.57;;;10.10;;
17967;SDS011;9109;48.050;11.696;2023-12-04T15:07:51;23.23;;;9.93;;
17967;SDS011;9109;48.050;11.696;2023-12-04T15:11:12;23.97;;;9.90;;
17967;SDS011;9109;48.050;11.696;2023-12-04T15:14:45;22.57;;;9.43;;
17967;SDS011;9109;48.050;11.696;2023-12-04T15:17:51;19.93;;;9.37;;
17967;SDS011;9109;48.050;11.696;2023-12-04T15:20:59;22.60;;;9.93;;
17967;SDS011;9109;48.050;11.696;2023-12-04T15:24:02;30.93;;;11.00;;
17967;SDS011;9109;48.050;11.696;2023-12-04T15:27:07;20.90;;;10.33;;
17967;SDS011;9109;48.050;11.696;2023-12-04T15:30:11;27.70;;;12.17;;
17967;SDS011;9109;48.050;11.696;2023-12-04T15:33:17;23.67;;;10.80;;
17967;SDS011;9109;48.050;11.696;2023-12-04T15:36:20;19.67;;;9.83;;
17967;SDS011;9109;48.050;11.696;2023-12-04T15:39:24;21.47;;;8.77;;
17967;SDS011;9109;48.050;11.696;2023-12-04T15:42:26;22.33;;;8.17;;
17967;SDS011;9109;48.050;11.696;2023-12-04T15:45:32;14.73;;;6.90;;
17967;SDS011;9109;48.050;11.696;2023-12-04T15:48:34;16.37;;;7.40;;
17967;SDS011;9109;48.050;11.696;2023-12-04T15:51:38;20.87;;;7.07;;
17967;SDS011;9109;48.050;11.696;2023-12-04T15:54:43;21.73;;;9.43;;
17967;SDS011;9109;48.050;11.696;2023-12-04T15:57:44;25.57;;;9.57;;
17967;SDS011;9109;48.050;11.696;2023-12-04T16:00:59;23.57;;;10.67;;
17967;SDS011;9109;48.050;11.696;2023-12-04T16:04:01;16.77;;;7.80;;
17967;SDS011;9109;48.050;11.696;2023-12-04T16:07:08;15.67;;;8.03;;
17967;SDS011;9109;48.050;11.696;2023-12-04T16:10:13;19.10;;;8.47;;
17967;SDS011;9109;48.050;11.696;2023-12-04T16:13:17;19.13;;;9.50;;
17967;SDS011;9109;48.050;11.696;2023-12-04T16:16:21;25.43;;;10.20;;
17967;SDS011;9109;48.050;11.696;2023-12-04T16:19:24;26.13;;;10.47;;
17967;SDS011;9109;48.050;11.696;2023-12-04T16:22:34;23.43;;;10.00;;
17967;SDS011;9109;48.050;11.696;2023-12-04T16:25:39;23.53;;;10.80;;
17967;SDS011;9109;48.050;11.696;2023-12-04T16:28:42;22.97;;;10.60;;
17967;SDS011;9109;48.050;11.696;2023-12-04T16:31:56;23.83;;;9.93;;
17967;SDS011;9109;48.050;11.696;2023-12-04T16:35:07;22.07;;;10.13;;
17967;SDS011;9109;48.050;11.696;2023-12-04T16:38:14;23.10;;;9.83;;
17967;SDS011;9109;48.050;11.696;2023-12-04T16:41:19;26.33;;;11.13;;
17967;SDS011;9109;48.050;11.696;2023-12-04T16:44:23;32.63;;;11.27;;
17967;SDS011;9109;48.050;11.696;2023-12-04T16:47:31;23.83;;;10.63;;
17967;SDS011;9109;48.050;11.696;2023-12-04T16:50:43;27.57;;;10.97;;
17967;SDS011;9109;48.050;11.696;2023-12-04T16:53:51;41.13;;;11.33;;
17967;SDS011;9109;48.050;11.696;2023-12-04T16:56:56;27.50;;;10.80;;
17967;SDS011;9109;48.050;11.696;2023-12-04T17:00:02;29.17;;;12.17;;
17967;SDS011;9109;48.050;11.696;2023-12-04T17:03:12;27.17;;;10.97;;
17967;SDS011;9109;48.050;11.696;2023-12-04T17:06:20;28.10;;;11.33;;
17967;SDS011;9109;48.050;11.696;2023-12-04T17:09:26;25.90;;;9.60;;
17967;SDS011;9109;48.050;11.696;2023-12-04T17:12:28;26.53;;;11.10;;
17967;SDS011;9109;48.050;11.696;2023-12-04T17:15:44;21.67;;;10.47;;
17967;SDS011;9109;48.050;11.696;2023-12-04T17:18:52;20.13;;;9.67;;
17967;SDS011;9109;48.050;11.696;2023-12-04T17:22:01;23.80;;;8.80;;
17967;SDS011;9109;48.050;11.696;2023-12-04T17:25:08;22.27;;;9.13;;
17967;SDS011;9109;48.050;11.696;2023-12-04T17:28:19;21.93;;;8.67;;
17967;SDS011;9109;48.050;11.696;2023-12-04T17:31:26;19.80;;;8.73;;
17967;SDS011;9109;48.050;11.696;2023-12-04T17:34:32;25.50;;;10.77;;
17967;SDS011;9109;48.050;11.696;2023-12-04T17:37:46;21.67;;;10.50;;
17967;SDS011;9109;48.050;11.696;2023-12-04T17:41:02;22.57;;;10.03;;
17967;SDS011;9109;48.050;11.696;2023-12-04T17:44:11;22.40;;;10.00;;
17967;SDS011;9109;48.050;11.696;2023-12-04T17:47:15;21.80;;;9.37;;
17967;SDS011;9109;48.050;11.696;2023-12-04T17:50:27;19.30;;;9.33;;
17967;SDS011;9109;48.050;11.696;2023-12-04T17:53:31;19.03;;;8.87;;
17967;SDS011;9109;48.050;11.696;2023-12-04T17:56:35;19.93;;;9.33;;
17967;SDS011;9109;48.050;11.696;2023-12-04T17:59:37;17.03;;;7.93;;
17967;SDS011;9109;48.050;11.696;2023-12-04T18:02:41;17.93;;;7.73;;
17967;SDS011;9109;48.050;11.696;2023-12-04T18:05:53;20.53;;;8.90;;
17967;SDS011;9109;48.050;11.696;2023-12-04T18:08:59;21.67;;;9.63;;
17967;SDS011;9109;48.050;11.696;2023-12-04T18:12:07;25.10;;;10.07;;
17967;SDS011;9109;48.050;11.696;2023-12-04T18:15:13;26.00;;;10.73;;
17967;SDS011;9109;48.050;11.696;2023-12-04T18:18:19;31.03;;;11.33;;
17967;SDS011;9109;48.050;11.696;2023-12-04T18:21:23;21.23;;;10.53;;
17967;SDS011;9109;48.050;11.696;2023-12-04T18:24:31;30.07;;;11.40;;
17967;SDS011;9109;48.050;11.696;2023-12-04T18:27:34;28.10;;;11.47;;
17967;SDS011;9109;48.050;11.696;2023-12-04T18:30:37;31.83;;;12.70;;
17967;SDS011;9109;48.050;11.696;2023-12-04T18:33:42;32.87;;;12.97;;
17967;SDS011;9109;48.050;11.696;2023-12-04T18:36:54;30.80;;;12.40;;